Time;durP1;ratioP1;P1;durP2;ratioP2;P2;SDS_P1;SDS_P2;PMS_P1;PMS_P2;Temp;Humidity;BMP_temperature;BMP_pressure;BME280_temperature;BME280_humidity;BME280_pressure;Samples;Min_cycle;Max_cycle;Signal;HPM_P1;HPM_P2
2022/01/22 00:03:15;;;;;;;10.55;5.35;;;5.00;99.90;;;;;;12386553;28;20042;-89
2022/01/22 00:09:17;;;;;;;7.30;5.38;;;5.00;99.90;;;;;;12388682;28;20713;-87
2022/01/22 00:15:22;;;;;;;9.20;6.00;;;4.90;99.90;;;;;;12396455;28;20077;-87
2022/01/22 00:21:24;;;;;;;7.90;4.93;;;4.90;99.90;;;;;;12375192;28;20074;-88
2022/01/22 00:27:27;;;;;;;8.60;5.13;;;4.90;99.90;;;;;;12375730;28;20142;-87
2022/01/22 00:33:29;;;;;;;7.47;5.30;;;4.90;99.90;;;;;;12380366;28;20140;-87
2022/01/22 00:39:31;;;;;;;8.25;5.55;;;5.00;99.90;;;;;;12382849;28;20695;-89
2022/01/22 00:45:33;;;;;;;6.72;5.20;;;5.00;99.90;;;;;;12388761;28;20042;-88
2022/01/22 00:51:35;;;;;;;9.63;5.50;;;4.90;99.90;;;;;;12382872;28;20173;-87
2022/01/22 00:57:37;;;;;;;7.63;5.28;;;4.90;99.90;;;;;;12383136;28;20134;-88
2022/01/22 01:03:39;;;;;;;7.45;4.43;;;4.90;99.90;;;;;;12414361;28;20379;-88
2022/01/22 01:09:42;;;;;;;7.50;4.95;;;4.90;99.90;;;;;;12402898;28;20125;-88
2022/01/22 01:16:04;;;;;;;7.53;4.80;;;5.00;99.90;;;;;;12377400;28;20046;-88
2022/01/22 01:34:49;;;;;;;8.65;5.15;;;5.00;99.90;;;;;;12423227;28;20038;-88
2022/01/22 01:41:02;;;;;;;7.20;4.50;;;5.10;99.90;;;;;;12397794;28;20077;-87
2022/01/22 01:47:07;;;;;;;10.13;5.05;;;5.10;99.90;;;;;;12427178;28;20038;-88
2022/01/22 01:53:16;;;;;;;;;;;5.10;99.90;;;;;;12398485;28;20051;-87
2022/01/22 01:59:19;;;;;;;8.82;4.25;;;5.10;99.90;;;;;;12428237;28;19930;-88
2022/01/22 02:05:22;;;;;;;8.40;4.68;;;5.20;99.90;;;;;;12410100;28;20076;-87
2022/01/22 02:11:26;;;;;;;8.27;5.03;;;5.20;99.90;;;;;;12421566;28;20042;-88
2022/01/22 02:23:52;;;;;;;7.28;3.83;;;5.30;99.90;;;;;;12409983;28;20141;-86
2022/01/22 02:29:54;;;;;;;9.77;4.25;;;5.30;99.90;;;;;;12379372;28;20084;-88
2022/01/22 02:36:02;;;;;;;8.85;4.57;;;5.30;99.90;;;;;;12397992;28;20073;-89
2022/01/22 02:42:05;;;;;;;9.63;4.80;;;5.30;99.90;;;;;;12394980;28;20053;-87
2022/01/22 02:48:07;;;;;;;7.78;4.18;;;5.40;99.90;;;;;;12396056;28;20088;-89
2022/01/22 02:54:09;;;;;;;9.75;4.35;;;5.40;99.90;;;;;;12379130;28;20049;-87
2022/01/22 03:00:18;;;;;;;9.75;4.20;;;5.40;99.90;;;;;;12390050;28;20486;-87
2022/01/22 03:06:20;;;;;;;5.78;3.95;;;5.50;99.90;;;;;;12378859;28;20110;-87
2022/01/22 03:31:05;;;;;;;7.25;4.25;;;5.50;99.90;;;;;;12359724;28;20046;-87
2022/01/22 03:37:08;;;;;;;5.32;3.03;;;5.50;99.90;;;;;;12394942;28;20049;-88
2022/01/22 03:43:10;;;;;;;5.63;3.30;;;5.60;99.90;;;;;;12384601;28;20081;-87
2022/01/22 03:49:13;;;;;;;6.97;3.30;;;5.60;99.90;;;;;;12391861;28;20137;-87
2022/01/22 04:13:57;;;;;;;5.05;2.70;;;5.70;99.90;;;;;;12394342;28;20218;-87
2022/01/22 04:26:33;;;;;;;6.50;2.65;;;5.70;99.90;;;;;;12397041;28;20053;-88
2022/01/22 04:32:35;;;;;;;4.07;2.50;;;5.70;99.90;;;;;;12377132;28;20073;-87
2022/01/22 04:38:38;;;;;;;4.68;2.30;;;5.70;99.90;;;;;;12377894;28;20050;-87
2022/01/22 04:44:53;;;;;;;6.05;2.30;;;5.70;99.90;;;;;;12384613;28;20169;-87
2022/01/22 04:57:17;;;;;;;4.72;2.53;;;5.80;99.90;;;;;;12394619;28;20052;-87
2022/01/22 05:03:20;;;;;;;4.53;2.60;;;5.80;99.90;;;;;;12383321;28;20126;-87
2022/01/22 05:09:22;;;;;;;6.05;2.70;;;5.80;99.90;;;;;;12382319;28;20049;-86
2022/01/22 05:15:23;;;;;;;4.03;2.40;;;5.80;99.90;;;;;;12380499;28;20072;-88
2022/01/22 05:21:27;;;;;;;6.93;2.70;;;5.80;99.90;;;;;;12398616;28;20054;-88
2022/01/22 05:40:07;;;;;;;6.22;2.97;;;5.90;99.90;;;;;;12418248;28;20046;-87
2022/01/22 05:46:09;;;;;;;6.40;2.95;;;5.80;99.90;;;;;;12394236;28;20050;-87
2022/01/22 05:52:14;;;;;;;7.40;3.28;;;5.90;99.90;;;;;;12386482;28;20459;-87
2022/01/22 06:04:38;;;;;;;6.43;3.00;;;5.90;99.90;;;;;;12351430;28;20021;-88
2022/01/22 06:10:40;;;;;;;5.57;3.17;;;5.90;99.90;;;;;;12346099;28;20138;-88
2022/01/22 06:16:42;;;;;;;5.43;2.83;;;5.90;99.90;;;;;;12351186;28;20051;-87
2022/01/22 06:22:44;;;;;;;7.30;2.75;;;5.90;99.90;;;;;;12343507;28;20030;-86
2022/01/22 06:28:46;;;;;;;5.75;2.70;;;5.90;99.90;;;;;;12363492;28;20730;-87
2022/01/22 06:34:47;;;;;;;6.28;2.20;;;5.90;99.90;;;;;;12353206;28;20077;-87
2022/01/22 06:47:10;;;;;;;6.10;3.30;;;5.90;99.90;;;;;;12350622;28;20226;-88
2022/01/22 06:53:12;;;;;;;8.73;3.50;;;5.80;99.90;;;;;;12323995;28;20054;-87
2022/01/22 06:59:14;;;;;;;7.45;3.42;;;5.80;99.90;;;;;;12342635;28;20049;-89
2022/01/22 07:05:16;;;;;;;6.60;3.63;;;5.80;99.90;;;;;;12387086;28;20124;-88
2022/01/22 07:11:18;;;;;;;8.60;3.80;;;5.80;99.90;;;;;;12384534;28;20034;-87
2022/01/22 07:17:20;;;;;;;10.68;3.80;;;5.80;99.90;;;;;;12396787;28;20077;-87
2022/01/22 07:29:37;;;;;;;8.38;3.67;;;5.80;99.90;;;;;;12398330;28;20129;-88
2022/01/22 07:35:38;;;;;;;6.45;3.28;;;5.70;99.90;;;;;;12383502;28;20062;-87
2022/01/22 07:41:40;;;;;;;6.75;3.35;;;5.70;99.90;;;;;;12381516;28;20872;-88
2022/01/22 07:47:42;;;;;;;9.43;3.35;;;5.70;99.90;;;;;;12397385;28;20089;-87
2022/01/22 07:53:45;;;;;;;11.20;3.22;;;5.80;99.90;;;;;;12380393;28;20164;-87
2022/01/22 07:59:47;;;;;;;4.78;2.42;;;5.70;99.90;;;;;;12395026;28;20446;-88
2022/01/22 08:05:49;;;;;;;7.32;2.45;;;5.80;99.90;;;;;;12382335;28;20069;-87
2022/01/22 08:11:51;;;;;;;5.70;2.28;;;5.80;99.90;;;;;;12377359;28;20076;-88
2022/01/22 08:17:53;;;;;;;5.93;2.88;;;5.80;99.90;;;;;;12391171;28;20161;-88
2022/01/22 08:23:55;;;;;;;8.43;3.00;;;5.80;99.90;;;;;;12368593;28;20050;-87
2022/01/22 08:29:57;;;;;;;7.18;2.78;;;5.70;99.90;;;;;;12379845;28;20061;-87
2022/01/22 08:36:02;;;;;;;6.75;2.70;;;5.70;99.90;;;;;;12372918;28;20077;-87
2022/01/22 08:42:06;;;;;;;7.63;2.90;;;5.80;99.90;;;;;;12375316;28;20125;-87
2022/01/22 08:48:08;;;;;;;4.83;2.47;;;5.80;99.90;;;;;;12393811;28;20601;-87
2022/01/22 08:54:10;;;;;;;4.25;2.53;;;5.80;99.90;;;;;;12403774;28;20049;-87
2022/01/22 09:00:13;;;;;;;7.32;4.20;;;5.80;99.90;;;;;;12384828;28;20050;-87
2022/01/22 09:06:17;;;;;;;5.18;2.22;;;5.90;99.90;;;;;;12385359;28;20058;-87
2022/01/22 09:12:19;;;;;;;4.63;1.95;;;6.00;99.90;;;;;;12386394;28;20101;-87
2022/01/22 09:18:22;;;;;;;3.17;1.98;;;6.10;99.90;;;;;;12391065;28;20104;-87
2022/01/22 09:24:24;;;;;;;4.18;1.90;;;6.00;99.90;;;;;;12392976;28;20850;-88
2022/01/22 09:30:26;;;;;;;6.05;3.13;;;5.90;99.90;;;;;;12404994;28;20042;-87
2022/01/22 09:36:31;;;;;;;6.10;2.63;;;5.90;99.90;;;;;;12399519;28;20172;-87
2022/01/22 09:42:33;;;;;;;3.97;2.97;;;5.90;99.90;;;;;;12386642;28;20054;-88
2022/01/22 09:48:43;;;;;;;5.90;3.28;;;5.90;99.90;;;;;;12396897;28;20543;-88
2022/01/22 09:54:45;;;;;;;7.07;3.10;;;6.00;99.90;;;;;;12380113;28;20164;-88
2022/01/22 10:00:47;;;;;;;5.35;3.10;;;6.10;99.90;;;;;;12384961;28;20074;-88
2022/01/22 10:06:53;;;;;;;4.43;2.70;;;6.10;99.90;;;;;;12395964;28;20049;-87
2022/01/22 10:12:55;;;;;;;4.55;2.67;;;6.10;99.90;;;;;;12393464;28;20049;-88
2022/01/22 10:19:09;;;;;;;4.93;2.58;;;6.30;99.90;;;;;;12361001;28;20074;-89
2022/01/22 10:25:23;;;;;;;3.27;2.07;;;6.20;99.90;;;;;;12379611;28;20112;-88
2022/01/22 10:31:40;;;;;;;;;;;6.30;99.90;;;;;;12369918;28;20556;-88
2022/01/22 10:37:42;;;;;;;3.33;2.20;;;6.40;99.90;;;;;;12381895;28;20016;-88
2022/01/22 10:43:54;;;;;;;2.75;1.52;;;6.50;99.90;;;;;;12384442;28;20145;-88
2022/01/22 10:50:22;;;;;;;3.45;2.22;;;6.60;99.90;;;;;;12377012;28;20480;-88
2022/01/22 10:56:29;;;;;;;2.67;1.63;;;6.70;99.90;;;;;;12381226;28;20072;-88
2022/01/22 11:02:34;;;;;;;4.28;2.60;;;6.50;99.90;;;;;;12394926;28;20089;-88
2022/01/22 11:08:37;;;;;;;3.28;1.58;;;6.60;99.90;;;;;;12382182;28;20152;-89
2022/01/22 11:14:43;;;;;;;3.55;1.83;;;6.50;99.90;;;;;;12383270;28;20050;-88
2022/01/22 11:20:47;;;;;;;3.25;2.20;;;6.40;99.90;;;;;;12381894;28;20582;-88
2022/01/22 11:26:59;;;;;;;2.67;1.67;;;6.40;99.90;;;;;;12377190;28;20061;-88
2022/01/22 11:33:07;;;;;;;3.17;2.10;;;6.40;99.90;;;;;;12388281;28;20124;-88
2022/01/22 11:39:20;;;;;;;3.22;1.70;;;6.40;99.90;;;;;;12377534;28;20050;-89
2022/01/22 11:45:31;;;;;;;2.25;1.38;;;6.40;99.90;;;;;;12380800;28;20043;-88
2022/01/22 11:51:33;;;;;;;2.20;1.25;;;6.50;99.90;;;;;;12440691;28;20076;-88
2022/01/22 11:57:35;;;;;;;2.28;1.55;;;6.40;99.90;;;;;;12388570;28;20050;-88
2022/01/22 12:03:56;;;;;;;2.05;1.25;;;6.60;99.90;;;;;;12406584;28;20045;-88
2022/01/22 12:10:31;;;;;;;2.92;1.48;;;6.70;99.90;;;;;;12383859;28;20552;-88
2022/01/22 12:16:39;;;;;;;2.45;1.17;;;6.70;99.90;;;;;;12390455;28;20054;-88
2022/01/22 12:22:41;;;;;;;2.05;1.25;;;6.70;99.90;;;;;;12377189;28;20814;-88
2022/01/22 12:28:48;;;;;;;2.00;1.13;;;6.70;99.90;;;;;;12373694;28;20061;-89
2022/01/22 12:35:07;;;;;;;2.38;1.40;;;6.70;99.90;;;;;;12370341;28;20509;-89
2022/01/22 12:47:44;;;;;;;1.63;1.00;;;6.80;99.90;;;;;;12394360;28;20144;-88
2022/01/22 12:53:48;;;;;;;3.42;1.17;;;6.80;99.90;;;;;;12379673;28;20057;-88
2022/01/22 12:59:52;;;;;;;3.78;1.40;;;6.60;99.90;;;;;;12372492;28;20084;-88
2022/01/22 13:06:02;;;;;;;3.10;1.42;;;6.70;99.90;;;;;;12382990;28;20050;-88
2022/01/22 13:12:05;;;;;;;2.35;1.40;;;6.80;99.90;;;;;;12374423;28;20053;-88
2022/01/22 13:18:07;;;;;;;2.95;1.52;;;6.70;99.90;;;;;;12374345;28;20057;-87
2022/01/22 13:24:11;;;;;;;1.73;1.00;;;6.80;99.90;;;;;;12371832;28;20100;-89
2022/01/22 13:30:13;;;;;;;3.50;1.67;;;6.70;99.90;;;;;;12380215;28;20995;-88
2022/01/22 13:48:39;;;;;;;3.00;1.25;;;6.30;99.90;;;;;;12397843;28;20062;-90
2022/01/22 13:54:44;;;;;;;2.35;1.30;;;6.00;99.90;;;;;;12386616;28;20422;-89
2022/01/22 14:00:46;;;;;;;3.78;1.65;;;5.90;99.90;;;;;;12386585;28;20550;-90
2022/01/22 14:07:33;;;;;;;3.08;1.58;;;5.80;99.90;;;;;;12389782;28;20486;-88
2022/01/22 14:13:36;;;;;;;4.68;2.38;;;6.00;99.90;;;;;;12379062;28;20727;-88
2022/01/22 14:19:38;;;;;;;6.82;2.63;;;6.10;99.90;;;;;;12389710;28;20094;-87
2022/01/22 14:26:03;;;;;;;6.35;1.88;;;6.00;99.90;;;;;;12388431;28;20169;-89
2022/01/22 14:32:16;;;;;;;5.20;3.10;;;6.00;99.90;;;;;;12387611;28;20048;-88
2022/01/22 14:38:34;;;;;;;3.50;1.90;;;6.00;99.90;;;;;;12379011;28;20052;-90
2022/01/22 14:44:38;;;;;;;4.82;1.95;;;6.10;99.90;;;;;;12380244;28;20104;-88
2022/01/22 14:50:39;;;;;;;4.55;1.48;;;5.90;99.90;;;;;;12376954;28;20120;-89
2022/01/22 14:56:43;;;;;;;3.58;1.65;;;5.80;99.90;;;;;;12382618;28;20081;-89
2022/01/22 15:02:47;;;;;;;2.88;1.42;;;5.80;99.90;;;;;;12376092;28;20125;-89
2022/01/22 15:08:50;;;;;;;2.80;1.63;;;5.80;99.90;;;;;;12379743;28;20050;-88
2022/01/22 15:14:53;;;;;;;3.78;1.52;;;5.70;99.90;;;;;;12390945;28;20061;-88
2022/01/22 15:20:55;;;;;;;2.17;1.23;;;5.70;99.90;;;;;;12372032;28;20482;-88
2022/01/22 15:26:57;;;;;;;6.28;1.50;;;5.80;99.90;;;;;;12377584;28;20495;-88
2022/01/22 15:33:18;;;;;;;2.70;1.50;;;5.70;99.90;;;;;;12390189;28;20050;-88
2022/01/22 15:39:21;;;;;;;4.60;1.70;;;5.70;99.90;;;;;;12394096;28;20061;-88
2022/01/22 15:45:25;;;;;;;4.85;2.20;;;5.70;99.90;;;;;;12428114;28;20054;-87
2022/01/22 15:51:27;;;;;;;3.35;2.13;;;5.70;99.90;;;;;;12399101;28;20188;-88
2022/01/22 15:57:31;;;;;;;3.75;2.15;;;5.70;99.90;;;;;;12395768;28;20041;-88
2022/01/22 16:03:34;;;;;;;3.13;1.70;;;5.70;99.90;;;;;;12379156;28;20541;-88
2022/01/22 16:09:36;;;;;;;6.37;2.43;;;5.70;99.90;;;;;;12377885;28;20062;-88
2022/01/22 16:15:54;;;;;;;4.57;2.25;;;5.50;99.90;;;;;;12381727;28;20046;-88
2022/01/22 16:21:57;;;;;;;3.03;2.08;;;5.50;99.90;;;;;;12391720;28;20054;-89
2022/01/22 16:27:59;;;;;;;3.97;2.10;;;5.50;99.90;;;;;;12393045;28;20050;-88
2022/01/22 16:34:04;;;;;;;4.40;2.10;;;5.60;99.90;;;;;;12384547;28;20126;-88
2022/01/22 16:40:10;;;;;;;3.63;1.70;;;5.60;99.90;;;;;;12389678;28;20053;-88
2022/01/22 16:58:49;;;;;;;5.07;1.75;;;5.60;99.90;;;;;;12393964;28;20054;-87
2022/01/22 17:04:54;;;;;;;4.03;2.20;;;5.50;99.90;;;;;;12379965;28;20062;-88
2022/01/22 17:11:21;;;;;;;4.47;2.90;;;5.50;99.90;;;;;;12376961;28;20140;-88
2022/01/22 17:17:25;;;;;;;9.07;3.08;;;5.50;99.90;;;;;;12395708;28;20049;-88
2022/01/22 17:23:27;;;;;;;5.75;3.05;;;5.60;99.90;;;;;;12381116;28;20051;-88
2022/01/22 17:29:29;;;;;;;4.97;3.53;;;5.60;99.90;;;;;;12392258;28;20073;-88
2022/01/22 17:35:34;;;;;;;6.47;3.88;;;5.60;99.90;;;;;;12388911;28;20049;-87
2022/01/22 17:41:41;;;;;;;7.85;3.90;;;5.60;99.90;;;;;;12390762;28;20474;-87
2022/01/22 17:47:42;;;;;;;;;;;5.60;99.90;;;;;;12391220;28;20141;-88
2022/01/22 17:53:44;;;;;;;5.15;4.00;;;5.60;99.90;;;;;;12383211;28;20024;-87
2022/01/22 17:59:47;;;;;;;7.97;5.68;;;5.60;99.90;;;;;;12384950;28;20060;-88
2022/01/22 18:05:49;;;;;;;6.15;4.68;;;5.60;99.90;;;;;;12387751;28;20101;-88
2022/01/22 18:11:52;;;;;;;7.85;4.78;;;5.60;99.90;;;;;;12375952;28;20058;-87
2022/01/22 18:17:54;;;;;;;7.43;5.13;;;5.50;99.90;;;;;;12379787;28;20048;-88
2022/01/22 18:23:56;;;;;;;8.82;4.65;;;5.50;99.90;;;;;;12395565;28;20507;-88
2022/01/22 18:29:58;;;;;;;6.05;3.60;;;5.50;99.90;;;;;;12388178;28;20050;-88
2022/01/22 18:36:00;;;;;;;6.72;3.75;;;5.60;99.90;;;;;;12387796;28;20157;-89
2022/01/22 18:42:05;;;;;;;7.13;4.30;;;5.50;99.90;;;;;;12384914;28;20077;-88
2022/01/22 18:48:08;;;;;;;8.77;4.63;;;5.40;99.90;;;;;;12377571;28;20057;-87
2022/01/22 18:54:11;;;;;;;9.48;5.70;;;5.40;99.90;;;;;;12391112;28;20050;-88
2022/01/22 19:00:16;;;;;;;10.07;5.70;;;5.40;99.90;;;;;;12384322;28;20092;-90
2022/01/22 19:06:18;;;;;;;;;;;5.40;99.90;;;;;;12386822;28;20057;-88
2022/01/22 19:12:20;;;;;;;11.23;6.88;;;5.50;99.90;;;;;;12394551;28;19948;-88
2022/01/22 19:18:23;;;;;;;11.00;6.45;;;5.40;99.90;;;;;;12416247;28;20615;-88
2022/01/22 19:24:47;;;;;;;13.32;6.60;;;5.40;99.90;;;;;;12396100;28;20101;-89
2022/01/22 19:30:49;;;;;;;13.55;6.93;;;5.30;99.90;;;;;;12420305;28;20049;-87
2022/01/22 19:36:54;;;;;;;15.23;7.20;;;5.30;99.90;;;;;;12436082;28;20984;-87
2022/01/22 19:43:03;;;;;;;15.23;7.95;;;5.30;99.90;;;;;;12412079;28;21403;-87
2022/01/22 19:49:07;;;;;;;13.13;7.65;;;5.30;99.90;;;;;;12417963;28;20050;-88
2022/01/22 19:55:09;;;;;;;15.03;8.23;;;5.30;99.90;;;;;;12391107;28;20073;-88
2022/01/22 20:01:12;;;;;;;16.30;8.15;;;5.20;99.90;;;;;;12376126;28;20393;-87
2022/01/22 20:07:14;;;;;;;16.75;8.60;;;5.20;99.90;;;;;;12394285;28;20053;-87
2022/01/22 20:13:18;;;;;;;15.02;8.95;;;5.20;99.90;;;;;;12372388;28;20054;-88
2022/01/22 20:19:20;;;;;;;14.07;9.27;;;5.20;99.90;;;;;;12380096;28;20149;-88
2022/01/22 20:25:22;;;;;;;14.15;8.02;;;5.20;99.90;;;;;;12394029;28;20073;-87
2022/01/22 20:31:26;;;;;;;11.98;7.22;;;5.20;99.90;;;;;;12382942;28;20140;-89
2022/01/22 20:37:28;;;;;;;18.23;7.72;;;5.20;99.90;;;;;;12393034;28;20050;-87
2022/01/22 20:43:33;;;;;;;12.00;6.95;;;5.20;99.90;;;;;;12388981;28;20137;-89
2022/01/22 20:49:36;;;;;;;15.45;8.13;;;5.10;99.90;;;;;;12389211;28;20054;-88
2022/01/22 20:55:39;;;;;;;10.80;7.28;;;5.10;99.90;;;;;;12395569;28;20050;-87
2022/01/22 21:01:43;;;;;;;14.50;7.47;;;5.10;99.90;;;;;;12391027;28;20054;-87
2022/01/22 21:08:03;;;;;;;15.05;6.75;;;5.10;99.90;;;;;;12394173;28;20709;-89
2022/01/22 21:14:05;;;;;;;15.82;8.50;;;5.10;99.90;;;;;;12402576;28;20101;-87
2022/01/22 21:20:08;;;;;;;18.88;8.88;;;5.10;99.90;;;;;;12372883;28;20054;-87
2022/01/22 21:26:10;;;;;;;15.65;9.95;;;5.20;99.90;;;;;;12379141;28;21125;-87
2022/01/22 21:32:12;;;;;;;20.30;10.30;;;5.10;99.90;;;;;;12371459;28;20042;-87
2022/01/22 21:44:45;;;;;;;21.13;11.02;;;5.10;99.90;;;;;;12388791;28;20144;-87
2022/01/22 21:50:47;;;;;;;18.77;11.30;;;5.10;99.90;;;;;;12381007;28;20089;-87
2022/01/22 21:56:50;;;;;;;24.20;11.63;;;5.10;99.90;;;;;;12381760;28;20383;-88
2022/01/22 22:02:54;;;;;;;21.02;12.00;;;5.10;99.90;;;;;;12399614;28;20145;-87
2022/01/22 22:08:56;;;;;;;;;;;5.10;99.90;;;;;;12401418;28;20473;-87
2022/01/22 22:14:58;;;;;;;18.27;10.75;;;4.90;99.90;;;;;;12395532;28;19965;-89
2022/01/22 22:21:00;;;;;;;18.67;10.45;;;5.00;99.90;;;;;;12403277;28;20050;-87
2022/01/22 22:27:02;;;;;;;13.98;8.95;;;5.00;99.90;;;;;;12382983;28;20046;-87
2022/01/22 22:33:07;;;;;;;16.27;9.13;;;5.00;99.90;;;;;;12384681;28;20145;-89
2022/01/22 22:39:09;;;;;;;18.33;10.15;;;5.00;99.90;;;;;;12381791;28;20081;-87
2022/01/22 22:45:11;;;;;;;17.77;9.10;;;5.00;99.90;;;;;;12388510;28;20536;-88
2022/01/22 22:51:13;;;;;;;16.65;8.60;;;5.00;99.90;;;;;;12388236;28;20554;-88
2022/01/22 22:57:15;;;;;;;17.67;9.35;;;5.00;99.90;;;;;;12411517;28;20517;-88
2022/01/22 23:03:20;;;;;;;17.13;9.60;;;4.90;99.90;;;;;;12388024;28;20058;-87
2022/01/22 23:09:22;;;;;;;20.27;9.40;;;5.00;99.90;;;;;;12396711;28;20080;-88
2022/01/22 23:15:25;;;;;;;13.35;8.85;;;4.90;99.90;;;;;;12367677;28;20054;-88
2022/01/22 23:21:43;;;;;;;16.02;8.30;;;4.90;99.90;;;;;;12382933;28;20081;-89
2022/01/22 23:27:45;;;;;;;15.75;9.13;;;4.90;99.90;;;;;;12376995;28;20062;-87
2022/01/22 23:33:55;;;;;;;14.88;8.10;;;4.90;99.90;;;;;;12383738;28;20054;-87
2022/01/22 23:59:35;;;;;;;12.88;7.05;;;4.80;99.90;;;;;;12393089;28;20050;-88
